Time;durP1;ratioP1;P1;durP2;ratioP2;P2;SDS_P1;SDS_P2;PMS_P1;PMS_P2;Temp;Humidity;BMP_temperature;BMP_pressure;BME280_temperature;BME280_humidity;BME280_pressure;Samples;Min_cycle;Max_cycle;Signal;HPM_P1;HPM_P2
2022/07/08 00:00:44;;;;;;;11.95;4.32;;;;;;;18.05;70.74;99381.50;4985635;28;20032;-96
2022/07/08 00:03:09;;;;;;;7.05;4.07;;;;;;;18.14;70.55;99390.50;4985326;28;20518;-94
2022/07/08 00:05:35;;;;;;;7.13;3.63;;;;;;;18.05;70.38;99384.22;4989122;28;20017;-94
2022/07/08 00:08:00;;;;;;;5.95;3.72;;;;;;;17.94;70.55;99385.66;4988903;28;20032;-96
2022/07/08 00:10:26;;;;;;;4.78;3.70;;;;;;;17.96;70.25;99384.22;4972199;28;20045;-94
2022/07/08 00:12:52;;;;;;;6.30;4.53;;;;;;;17.86;70.76;99378.25;4969878;28;20037;-95
2022/07/08 00:15:17;;;;;;;7.35;3.70;;;;;;;17.84;71.28;99378.56;4985228;28;20026;-96
2022/07/08 00:17:43;;;;;;;5.65;3.60;;;;;;;17.88;71.16;99384.19;4984945;28;20017;-95
2022/07/08 00:20:09;;;;;;;6.63;3.80;;;;;;;17.64;71.88;99360.88;4969407;28;20080;-94
2022/07/08 00:22:35;;;;;;;6.88;4.30;;;;;;;17.63;71.90;99356.53;5002028;28;20026;-94
2022/07/08 00:25:01;;;;;;;4.78;3.97;;;;;;;17.64;71.99;99363.59;4968815;28;20014;-94
2022/07/08 00:27:26;;;;;;;6.00;4.35;;;;;;;17.57;71.65;99349.63;4984184;28;20087;-95
2022/07/08 00:29:52;;;;;;;8.55;4.18;;;;;;;17.71;71.59;99368.59;4985324;28;20014;-94
2022/07/08 00:32:18;;;;;;;6.50;3.88;;;;;;;17.69;71.11;99358.00;4984830;28;20064;-95
2022/07/08 00:34:43;;;;;;;12.02;4.53;;;;;;;17.58;71.93;99362.94;4984619;28;20033;-96
2022/07/08 00:37:09;;;;;;;6.20;4.20;;;;;;;17.67;71.50;99367.59;4968202;28;20450;-94
2022/07/08 00:39:34;;;;;;;8.63;4.65;;;;;;;17.54;72.23;99358.44;4984635;28;20472;-96
2022/07/08 00:42:00;;;;;;;7.13;4.13;;;;;;;17.54;72.00;99361.16;4984766;28;20484;-95
2022/07/08 00:44:25;;;;;;;9.50;4.20;;;;;;;17.53;72.22;99368.50;4968566;28;20026;-95
2022/07/08 00:46:51;;;;;;;8.35;4.30;;;;;;;17.64;72.13;99377.22;4984125;28;20022;-96
2022/07/08 00:49:17;;;;;;;5.38;4.40;;;;;;;17.61;72.17;99379.75;4984383;28;20026;-94
2022/07/08 00:51:42;;;;;;;6.10;4.85;;;;;;;17.53;72.29;99363.06;4968332;28;20017;-96
2022/07/08 00:54:08;;;;;;;8.82;5.28;;;;;;;17.66;71.97;99376.88;4968648;28;20411;-96
2022/07/08 00:56:33;;;;;;;5.95;5.00;;;;;;;17.70;71.88;99364.25;4967875;28;20030;-96
2022/07/08 00:58:59;;;;;;;8.40;4.97;;;;;;;17.69;72.05;99360.72;4983957;28;20037;-95
2022/07/08 01:01:24;;;;;;;10.02;5.30;;;;;;;17.70;72.11;99372.41;4984385;28;20495;-96
2022/07/08 01:03:50;;;;;;;11.30;4.90;;;;;;;17.71;71.87;99369.38;4984464;28;20037;-96
2022/07/08 01:06:15;;;;;;;7.68;5.18;;;;;;;17.53;72.10;99360.34;4983897;28;20022;-95
2022/07/08 01:08:41;;;;;;;6.80;4.30;;;;;;;17.42;72.07;99342.69;4970742;28;20054;-95
2022/07/08 01:11:09;;;;;;;8.07;4.90;;;;;;;17.34;72.06;99346.19;5004141;28;20112;-96
2022/07/08 01:13:36;;;;;;;6.65;4.38;;;;;;;17.37;71.84;99340.94;4987417;28;20025;-96
2022/07/08 01:16:01;;;;;;;5.72;4.15;;;;;;;17.38;71.19;99347.16;4987251;28;20027;-96
2022/07/08 01:18:28;;;;;;;7.38;4.55;;;;;;;17.36;71.71;99341.22;4987554;28;20037;-96
2022/07/08 01:20:54;;;;;;;5.18;4.18;;;;;;;17.27;71.76;99340.41;4987957;28;20064;-96
2022/07/08 01:23:19;;;;;;;7.32;4.70;;;;;;;17.26;71.55;99349.66;4986687;28;20030;-96
2022/07/08 01:25:45;;;;;;;11.38;5.10;;;;;;;17.11;71.90;99332.63;4987036;28;20043;-96
2022/07/08 01:28:11;;;;;;;8.68;5.20;;;;;;;17.19;72.02;99346.63;4986678;28;20033;-94
2022/07/08 01:30:36;;;;;;;7.25;4.72;;;;;;;17.09;72.01;99334.88;4989736;28;20037;-95
2022/07/08 01:33:02;;;;;;;7.50;5.50;;;;;;;17.02;73.04;99350.84;4988124;28;20458;-93
2022/07/08 01:35:27;;;;;;;8.32;5.45;;;;;;;16.98;72.76;99349.88;5003614;28;20029;-96
2022/07/08 01:37:53;;;;;;;5.75;5.05;;;;;;;16.85;73.19;99339.84;5003931;28;20455;-96
2022/07/08 01:40:18;;;;;;;10.18;5.47;;;;;;;16.94;73.04;99357.03;4987799;28;20119;-96
2022/07/08 01:42:44;;;;;;;8.85;5.85;;;;;;;16.77;73.32;99339.47;4987588;28;20088;-95
2022/07/08 01:45:09;;;;;;;11.77;6.88;;;;;;;16.90;73.46;99365.00;4986496;28;20036;-96
2022/07/08 01:47:35;;;;;;;11.93;6.95;;;;;;;17.03;72.68;99351.66;4987576;28;20061;-95
2022/07/08 01:50:01;;;;;;;11.13;6.47;;;;;;;16.90;73.23;99356.06;4988561;28;20038;-96
2022/07/08 01:52:27;;;;;;;12.18;6.35;;;;;;;16.82;72.72;99337.75;5003701;28;20033;-95
2022/07/08 01:54:53;;;;;;;10.52;6.72;;;;;;;16.85;73.26;99351.56;5002710;28;20029;-95
2022/07/08 01:57:21;;;;;;;10.20;6.65;;;;;;;16.90;73.45;99356.84;5002873;28;20025;-95
2022/07/08 01:59:47;;;;;;;9.73;6.65;;;;;;;16.83;73.62;99356.50;4987857;28;20083;-95
2022/07/08 02:02:14;;;;;;;10.70;5.45;;;;;;;16.83;73.37;99350.25;4987092;28;20491;-95
2022/07/08 02:04:40;;;;;;;11.82;5.15;;;;;;;16.85;73.30;99356.16;5003051;28;20029;-92
2022/07/08 02:07:05;;;;;;;7.60;4.78;;;;;;;16.88;73.23;99361.81;4985990;28;20456;-94
2022/07/08 02:09:31;;;;;;;5.78;4.75;;;;;;;16.91;73.68;99374.78;4986700;28;20050;-94
2022/07/08 02:14:40;;;;;;;8.18;4.97;;;;;;;16.75;74.09;99349.06;5008249;28;20399;-94
2022/07/08 02:17:06;;;;;;;7.32;5.43;;;;;;;16.76;73.57;99350.66;4986257;28;20029;-94
2022/07/08 02:19:33;;;;;;;8.70;6.10;;;;;;;16.68;73.82;99335.88;4985815;28;20410;-94
2022/07/08 02:21:59;;;;;;;7.78;5.30;;;;;;;16.83;72.92;99358.41;5002628;28;20120;-94
2022/07/08 02:24:24;;;;;;;9.70;5.63;;;;;;;16.80;72.88;99367.16;4985855;28;20129;-93
2022/07/08 02:26:50;;;;;;;7.45;5.68;;;;;;;16.84;72.48;99358.09;4985835;28;20030;-96
2022/07/08 02:29:15;;;;;;;18.65;7.22;;;;;;;16.95;72.67;99367.63;4985226;28;20025;-96
2022/07/08 02:31:40;;;;;;;9.27;6.35;;;;;;;16.96;72.37;99379.28;5001813;28;20498;-95
2022/07/08 02:34:06;;;;;;;13.18;7.13;;;;;;;17.00;72.71;99383.00;4986041;28;20036;-96
2022/07/08 02:36:32;;;;;;;10.45;6.63;;;;;;;16.99;72.12;99375.13;4985539;28;20029;-96
2022/07/08 02:38:57;;;;;;;13.52;8.40;;;;;;;17.00;72.59;99388.44;4985180;28;20029;-95
2022/07/08 02:41:22;;;;;;;11.35;7.18;;;;;;;16.92;72.13;99383.75;4985990;28;20041;-96
2022/07/08 02:43:48;;;;;;;8.95;5.90;;;;;;;16.89;71.96;99387.06;4985525;28;20033;-95
2022/07/08 02:46:13;;;;;;;7.38;6.18;;;;;;;16.77;71.36;99380.25;4985007;28;20055;-95
2022/07/08 02:48:39;;;;;;;10.40;6.32;;;;;;;16.86;72.14;99406.75;4985331;28;20061;-95
2022/07/08 02:51:05;;;;;;;12.52;7.05;;;;;;;16.70;72.08;99392.66;4985672;28;20029;-96
2022/07/08 02:53:30;;;;;;;14.13;7.00;;;;;;;16.86;71.60;99399.38;4985560;28;20065;-95
2022/07/08 02:55:56;;;;;;;14.27;7.28;;;;;;;16.74;71.36;99388.22;4986186;28;20029;-94
2022/07/08 02:58:21;;;;;;;17.85;7.00;;;;;;;16.73;72.09;99403.75;4984750;28;20403;-96
2022/07/08 03:00:47;;;;;;;10.90;6.78;;;;;;;16.62;71.82;99402.38;5002210;28;20102;-96
2022/07/08 03:03:12;;;;;;;15.40;8.25;;;;;;;16.64;71.91;99413.72;4985528;28;20029;-96
2022/07/08 03:05:38;;;;;;;15.65;8.45;;;;;;;16.44;72.17;99392.47;4985553;28;20026;-96
2022/07/08 03:08:04;;;;;;;11.90;8.35;;;;;;;16.50;72.36;99405.63;4985561;28;20084;-96
2022/07/08 03:10:29;;;;;;;14.15;8.93;;;;;;;16.51;72.72;99412.66;4985397;28;20042;-96
2022/07/08 03:12:55;;;;;;;15.57;8.23;;;;;;;16.47;72.82;99421.75;4984992;28;20022;-96
2022/07/08 03:15:20;;;;;;;16.98;9.00;;;;;;;16.43;72.75;99401.72;4984533;28;20040;-96
2022/07/08 03:17:46;;;;;;;12.95;8.38;;;;;;;16.44;72.91;99414.22;4985138;28;20032;-95
2022/07/08 03:20:11;;;;;;;13.15;9.88;;;;;;;16.38;72.67;99391.78;4985139;28;20029;-94
2022/07/08 03:22:37;;;;;;;21.52;10.77;;;;;;;16.39;73.09;99412.41;4986044;28;20058;-94
2022/07/08 03:25:02;;;;;;;14.70;10.20;;;;;;;16.47;72.80;99421.75;4984625;28;20033;-94
2022/07/08 03:27:28;;;;;;;19.13;10.13;;;;;;;16.45;73.34;99415.81;4985262;28;20064;-94
2022/07/08 03:29:53;;;;;;;17.83;10.35;;;;;;;16.53;72.71;99413.16;4987375;28;20036;-96
2022/07/08 03:32:19;;;;;;;14.85;9.43;;;;;;;16.47;73.18;99425.25;4988213;28;20025;-95
2022/07/08 03:34:44;;;;;;;21.95;12.43;;;;;;;16.44;73.44;99428.59;5001410;28;20121;-96
2022/07/08 03:37:10;;;;;;;15.50;11.98;;;;;;;16.32;74.36;99420.19;4985617;28;20029;-95
2022/07/08 03:42:58;;;;;;;17.58;11.05;;;;;;;16.45;74.02;99421.25;5035300;28;20540;-95
2022/07/08 03:45:23;;;;;;;15.43;10.38;;;;;;;16.29;74.48;99421.59;5000842;28;20029;-96
2022/07/08 03:47:49;;;;;;;16.98;9.50;;;;;;;16.42;73.95;99430.03;4986789;28;20029;-95
2022/07/08 03:50:14;;;;;;;14.73;10.43;;;;;;;16.26;74.48;99427.63;5003791;28;20029;-96
2022/07/08 03:52:40;;;;;;;17.73;9.60;;;;;;;16.31;73.95;99408.50;4983781;28;20029;-96
2022/07/08 03:55:06;;;;;;;14.20;9.43;;;;;;;16.28;74.24;99411.03;4984255;28;20021;-94
2022/07/08 03:57:31;;;;;;;13.30;9.60;;;;;;;16.22;74.40;99407.63;4983396;28;20093;-92
2022/07/08 03:59:57;;;;;;;21.70;13.63;;;;;;;16.34;74.14;99432.34;4984005;28;20033;-94
2022/07/08 04:02:23;;;;;;;20.23;12.48;;;;;;;16.41;74.16;99421.06;4983183;28;20061;-93
2022/07/08 04:04:48;;;;;;;25.05;13.98;;;;;;;16.57;73.95;99433.19;4982931;28;20456;-94
2022/07/08 04:07:15;;;;;;;29.48;13.25;;;;;;;16.32;74.27;99407.38;5000420;28;20059;-94
2022/07/08 04:09:41;;;;;;;22.38;12.57;;;;;;;16.51;73.68;99418.09;4982497;28;20054;-95
2022/07/08 04:12:07;;;;;;;20.80;13.35;;;;;;;16.52;73.13;99403.41;4982786;28;20079;-92
2022/07/08 04:14:32;;;;;;;20.60;12.80;;;;;;;16.59;73.54;99407.63;4983254;28;20104;-93
2022/07/08 04:16:58;;;;;;;24.05;14.13;;;;;;;16.74;73.40;99426.28;4984419;28;20033;-94
2022/07/08 04:19:24;;;;;;;19.95;12.15;;;;;;;17.07;72.65;99432.31;4984072;28;20021;-95
2022/07/08 04:21:49;;;;;;;13.68;8.30;;;;;;;16.97;73.48;99429.84;4999226;28;20064;-93
2022/07/08 04:24:15;;;;;;;10.75;7.50;;;;;;;16.95;73.90;99423.91;4982937;28;20026;-93
2022/07/08 04:26:40;;;;;;;11.55;7.35;;;;;;;17.14;73.02;99437.31;5000082;28;20021;-95
2022/07/08 04:29:09;;;;;;;11.13;6.38;;;;;;;17.13;71.97;99431.06;4983685;28;20033;-93
2022/07/08 04:31:34;;;;;;;6.53;5.18;;;;;;;17.25;71.11;99427.78;4983868;28;20027;-92
2022/07/08 04:34:00;;;;;;;19.17;5.20;;;;;;;17.33;70.86;99429.75;4984894;28;20037;-92
2022/07/08 04:36:25;;;;;;;9.85;4.80;;;;;;;17.49;70.60;99432.06;4985378;28;20029;-93
2022/07/08 04:38:51;;;;;;;13.73;4.72;;;;;;;17.46;70.88;99425.34;4985872;28;20471;-93
2022/07/08 04:41:16;;;;;;;16.02;5.05;;;;;;;17.52;70.06;99418.66;4984006;28;20447;-91
2022/07/08 04:44:05;;;;;;;15.02;5.45;;;;;;;17.82;69.55;99440.69;5003111;28;20036;-93
2022/07/08 04:46:30;;;;;;;10.32;5.30;;;;;;;17.74;69.37;99444.19;5001022;28;20030;-94
2022/07/08 04:48:56;;;;;;;11.45;4.93;;;;;;;17.72;69.60;99441.81;4984911;28;20179;-93
2022/07/08 04:51:23;;;;;;;11.05;5.25;;;;;;;17.66;69.51;99424.00;4987702;28;20379;-93
2022/07/08 04:53:49;;;;;;;8.27;5.40;;;;;;;17.81;69.15;99428.22;4987390;28;20029;-93
2022/07/08 04:56:14;;;;;;;11.35;5.15;;;;;;;17.96;68.29;99435.19;4987501;28;20063;-92
2022/07/08 04:58:40;;;;;;;6.40;4.90;;;;;;;18.06;68.61;99443.06;4987102;28;20040;-92
2022/07/08 05:01:05;;;;;;;10.68;5.05;;;;;;;18.06;68.57;99445.00;4986731;28;20032;-96
2022/07/08 05:03:33;;;;;;;8.85;4.72;;;;;;;18.04;68.88;99456.19;5002185;28;20029;-93
2022/07/08 05:05:59;;;;;;;10.00;5.80;;;;;;;18.07;68.52;99439.19;4986324;28;20056;-92
2022/07/08 05:08:24;;;;;;;8.80;4.85;;;;;;;18.06;68.05;99456.69;4985801;28;20026;-92
2022/07/08 05:10:50;;;;;;;8.75;4.80;;;;;;;18.25;67.59;99466.50;4985411;28;20580;-91
2022/07/08 05:13:18;;;;;;;9.80;5.35;;;;;;;18.20;69.07;99442.13;4987713;28;20036;-94
2022/07/08 05:15:44;;;;;;;28.02;17.58;;;;;;;18.36;67.88;99446.81;4990999;28;20072;-93
2022/07/08 05:18:11;;;;;;;10.73;5.85;;;;;;;18.51;67.35;99444.72;4991706;28;20021;-94
2022/07/08 05:20:36;;;;;;;7.70;5.20;;;;;;;18.60;67.32;99445.56;4990410;28;20017;-91
2022/07/08 05:23:16;;;;;;;;;;;;;;;;;;;;;
2022/07/08 05:25:47;;;;;;;16.10;5.90;;;;;;;18.78;66.88;99465.47;5021505;28;20106;-94
2022/07/08 05:28:13;;;;;;;9.77;6.38;;;;;;;18.92;66.22;99466.13;4984285;28;20017;-92
2022/07/08 05:30:38;;;;;;;9.20;7.97;;;;;;;19.00;65.36;99450.88;4984843;28;20089;-87
2022/07/08 05:33:04;;;;;;;8.45;7.38;;;;;;;19.06;64.88;99441.38;5001053;28;20036;-91
2022/07/08 05:35:29;;;;;;;10.95;8.38;;;;;;;19.10;65.05;99427.91;5000324;28;20525;-88
2022/07/08 05:37:55;;;;;;;12.27;9.18;;;;;;;19.27;64.79;99437.97;4984091;28;20021;-88
2022/07/08 05:40:20;;;;;;;16.83;10.20;;;;;;;19.32;64.26;99440.53;5034170;28;20072;-87
2022/07/08 05:42:46;;;;;;;11.68;9.07;;;;;;;19.48;64.60;99455.25;5034484;28;20025;-89
2022/07/08 05:45:14;;;;;;;13.85;9.05;;;;;;;19.65;64.38;99457.16;5002154;28;20483;-91
2022/07/08 05:47:40;;;;;;;13.90;11.10;;;;;;;19.76;63.53;99447.50;4986097;28;20021;-92
2022/07/08 05:50:06;;;;;;;15.80;9.82;;;;;;;19.91;63.08;99443.41;4987084;28;20028;-91
2022/07/08 05:52:32;;;;;;;14.70;9.73;;;;;;;19.98;61.78;99440.97;4985795;28;20017;-92
2022/07/08 05:54:57;;;;;;;16.90;9.77;;;;;;;20.02;60.97;99432.09;4986700;28;20051;-90
2022/07/08 05:57:28;;;;;;;11.05;9.95;;;;;;;20.22;61.04;99453.22;4987371;28;20116;-94
2022/07/08 05:59:56;;;;;;;10.00;8.60;;;;;;;20.21;60.33;99429.72;4987793;28;20428;-91
2022/07/08 06:02:25;;;;;;;9.95;7.70;;;;;;;20.34;59.77;99439.63;5000895;28;20414;-90
2022/07/08 06:18:57;;;;;;;;;;;;;;;21.00;56.29;99443.66;5038261;28;20117;-92
2022/07/08 06:21:23;;;;;;;6.20;3.92;;;;;;;21.06;55.99;99433.25;5021542;28;19912;-91
2022/07/08 06:23:51;;;;;;;5.50;3.45;;;;;;;21.34;55.43;99453.44;5002597;28;20543;-92
2022/07/08 06:26:24;;;;;;;4.63;2.65;;;;;;;21.46;54.33;99444.50;5007021;28;20039;-94
2022/07/08 06:29:02;;;;;;;6.75;3.08;;;;;;;21.50;54.72;99422.66;5022756;28;20034;-95
2022/07/08 06:31:44;;;;;;;6.85;2.90;;;;;;;21.67;54.33;99424.44;5029655;28;20049;-96
2022/07/08 06:37:19;;;;;;;6.35;3.13;;;;;;;21.89;52.87;99421.22;5141105;22;20084;-93
2022/07/08 06:39:49;;;;;;;15.07;3.72;;;;;;;21.91;52.19;99421.66;4992871;28;20021;-95
2022/07/08 06:42:43;;;;;;;3.15;2.63;;;;;;;22.07;52.18;99432.75;5011843;28;20037;-95
2022/07/08 06:45:09;;;;;;;3.85;2.90;;;;;;;22.18;51.13;99425.66;5009115;28;20033;-96
2022/07/08 06:48:26;;;;;;;;;;;;;;;;;;;;;
2022/07/08 06:51:23;;;;;;;;;;;;;;;;;;;;;
2022/07/08 06:57:08;;;;;;;5.05;3.08;;;;;;;22.56;52.00;99418.19;4984003;28;20109;-95
2022/07/08 06:59:38;;;;;;;7.15;3.17;;;;;;;22.62;52.04;99425.03;4981422;28;20516;-96
2022/07/08 07:02:07;;;;;;;6.47;3.35;;;;;;;22.56;51.49;99434.66;4988318;28;20057;-96
2022/07/08 07:04:43;;;;;;;7.30;3.72;;;;;;;22.49;51.96;99417.97;4969701;28;20109;-96
2022/07/08 07:10:04;;;;;;;7.68;3.60;;;;;;;22.57;52.65;99431.53;4984862;28;20027;-96
2022/07/08 07:12:32;;;;;;;6.70;4.25;;;;;;;22.63;52.75;99412.09;4983452;28;20035;-95
2022/07/08 07:14:58;;;;;;;5.60;3.15;;;;;;;22.47;52.33;99410.06;4986469;28;20041;-96
2022/07/08 07:17:24;;;;;;;4.25;2.90;;;;;;;22.60;53.01;99416.34;4954994;28;20127;-95
2022/07/08 07:20:21;;;;;;;5.05;3.45;;;;;;;22.54;51.85;99407.56;4987108;28;20026;-95
2022/07/08 07:23:19;;;;;;;10.93;4.00;;;;;;;22.56;51.01;99405.25;4948694;29;20035;-95
2022/07/08 07:26:10;;;;;;;7.63;3.55;;;;;;;22.87;50.46;99427.66;4957534;29;20032;-93
2022/07/08 07:28:42;;;;;;;8.38;4.25;;;;;;;22.90;49.49;99418.75;4935666;29;20043;-93
2022/07/08 07:31:07;;;;;;;10.27;5.32;;;;;;;22.89;50.03;99400.66;4911961;28;20066;-94
2022/07/08 07:33:36;;;;;;;6.55;3.80;;;;;;;23.13;49.26;99408.81;4961624;28;20077;-93
2022/07/08 07:36:01;;;;;;;6.45;3.38;;;;;;;23.22;49.00;99396.84;4944276;28;20077;-92
2022/07/08 07:38:29;;;;;;;6.60;2.85;;;;;;;23.28;47.68;99417.41;4966155;28;20031;-93
2022/07/08 07:40:58;;;;;;;8.88;3.70;;;;;;;23.26;48.20;99403.25;4949821;28;20030;-95
2022/07/08 07:46:46;;;;;;;4.45;3.00;;;;;;;23.46;47.99;99398.66;5000080;28;20030;-96
2022/07/08 07:49:15;;;;;;;7.45;4.57;;;;;;;23.51;46.53;99387.38;4972243;28;20062;-93
2022/07/08 07:51:55;;;;;;;4.60;2.40;;;;;;;23.58;45.96;99388.38;4929265;29;20040;-95
2022/07/08 07:57:16;;;;;;;7.47;3.90;;;;;;;23.84;44.87;99408.25;4958086;28;20051;-91
2022/07/08 08:02:30;;;;;;;8.13;2.67;;;;;;;23.76;45.34;99396.22;4979526;28;20077;-91
2022/07/08 08:05:04;;;;;;;4.78;2.60;;;;;;;23.69;45.48;99410.63;4945084;28;20023;-92
2022/07/08 08:07:36;;;;;;;7.75;2.92;;;;;;;23.82;45.75;99396.78;4961856;28;20054;-93
2022/07/08 08:10:14;;;;;;;8.63;3.67;;;;;;;23.94;45.39;99391.19;4964667;28;20073;-93
2022/07/08 08:12:50;;;;;;;5.13;2.25;;;;;;;24.01;45.50;99391.38;4981867;28;20040;-91
2022/07/08 08:15:22;;;;;;;6.38;2.70;;;;;;;24.16;45.98;99403.50;4963509;28;20057;-94
2022/07/08 08:18:05;;;;;;;4.10;2.20;;;;;;;24.02;45.38;99375.66;4964562;28;20034;-93
2022/07/08 08:20:56;;;;;;;8.63;2.90;;;;;;;24.19;45.69;99372.50;4993962;28;20022;-95
2022/07/08 08:23:37;;;;;;;10.70;3.10;;;;;;;24.40;46.11;99389.47;5013936;28;20066;-96
2022/07/08 08:26:05;;;;;;;;;;;;;;;24.60;45.86;99395.00;4990014;28;20029;-95
2022/07/08 08:32:40;;;;;;;;;;;;;;;;;;;;;
2022/07/08 08:35:17;;;;;;;5.68;2.58;;;;;;;24.67;44.23;99353.03;4989788;28;20105;-96
2022/07/08 08:37:43;;;;;;;8.52;2.40;;;;;;;24.86;43.55;99358.56;4971842;28;20488;-93
2022/07/08 08:40:59;;;;;;;3.45;2.10;;;;;;;25.02;42.39;99345.44;4975927;28;20075;-96
2022/07/08 08:43:27;;;;;;;7.60;2.47;;;;;;;25.02;43.63;99348.19;4974354;28;20067;-95
2022/07/08 08:46:19;;;;;;;4.95;2.25;;;;;;;25.02;43.17;99347.41;4955193;28;20103;-94
2022/07/08 08:48:44;;;;;;;7.88;2.65;;;;;;;25.31;43.17;99342.41;4954734;28;20054;-94
2022/07/08 08:51:11;;;;;;;6.43;2.13;;;;;;;25.39;42.54;99349.66;4965847;28;20045;-95
2022/07/08 08:53:48;;;;;;;6.88;3.60;;;;;;;25.43;43.05;99344.19;4985216;28;20040;-94
2022/07/08 08:56:59;;;;;;;;;;;;;;;;;;;;;
2022/07/08 08:59:28;;;;;;;9.65;2.60;;;;;;;25.59;42.67;99342.88;5002474;28;20041;-93
2022/07/08 09:01:58;;;;;;;5.43;2.40;;;;;;;25.46;43.07;99333.22;4986122;28;20188;-95
2022/07/08 09:04:39;;;;;;;;;;;;;;;;;;;;;
2022/07/08 09:07:15;;;;;;;8.93;3.17;;;;;;;25.45;43.15;99342.66;5010503;28;20113;-95
2022/07/08 09:09:54;;;;;;;18.10;14.38;;;;;;;25.48;43.13;99333.63;4990347;28;20542;-93
2022/07/08 09:12:37;;;;;;;4.32;3.10;;;;;;;25.51;42.93;99334.88;4992886;28;20039;-94
2022/07/08 09:15:06;;;;;;;7.10;3.10;;;;;;;25.55;42.99;99342.03;5026286;28;20036;-94
2022/07/08 09:17:31;;;;;;;5.60;3.33;;;;;;;25.67;43.33;99337.47;5010817;28;20067;-93
2022/07/08 09:19:57;;;;;;;6.68;3.00;;;;;;;25.81;42.72;99345.94;5008751;28;20087;-92
2022/07/08 09:22:27;;;;;;;5.68;2.67;;;;;;;25.98;43.39;99350.97;4994047;28;20029;-93
2022/07/08 09:24:55;;;;;;;3.08;2.35;;;;;;;26.04;42.57;99343.16;5010326;28;20087;-93
2022/07/08 09:27:23;;;;;;;6.35;2.30;;;;;;;26.26;41.59;99347.00;4990294;28;20030;-93
2022/07/08 09:29:59;;;;;;;5.13;2.60;;;;;;;26.34;40.90;99345.91;5005374;28;20566;-94
2022/07/08 09:40:10;;;;;;;4.40;2.20;;;;;;;26.39;40.53;99319.94;4980314;28;20535;-93
2022/07/08 09:42:43;;;;;;;3.50;2.50;;;;;;;26.62;40.58;99333.63;5016200;28;20038;-92
2022/07/08 09:45:09;;;;;;;14.02;3.75;;;;;;;26.65;40.68;99312.78;5001198;28;20082;-91
2022/07/08 09:47:42;;;;;;;3.90;2.47;;;;;;;26.79;38.89;99316.47;5017442;28;20097;-92
2022/07/08 09:50:14;;;;;;;12.00;2.90;;;;;;;27.01;39.63;99311.94;5024130;28;20073;-93
2022/07/08 09:53:03;;;;;;;7.60;2.70;;;;;;;26.83;38.96;99294.38;5008905;28;20021;-96
2022/07/08 09:55:32;;;;;;;3.42;2.17;;;;;;;27.10;38.51;99303.34;5034938;28;20030;-94
2022/07/08 09:58:12;;;;;;;4.38;2.00;;;;;;;27.20;36.14;99305.38;5011410;28;20020;-94
2022/07/08 10:00:38;;;;;;;4.22;1.95;;;;;;;27.21;36.90;99297.91;5026496;28;20037;-95
2022/07/08 10:03:04;;;;;;;7.30;2.40;;;;;;;27.25;36.88;99284.94;5010727;28;20120;-94
2022/07/08 10:05:33;;;;;;;4.93;2.53;;;;;;;27.32;37.25;99290.50;5006488;28;20049;-94
2022/07/08 10:08:13;;;;;;;4.25;2.40;;;;;;;27.46;36.82;99309.19;5005198;28;20029;-93
2022/07/08 10:10:44;;;;;;;7.20;2.60;;;;;;;27.24;36.55;99307.44;5004140;28;20041;-93
2022/07/08 10:13:10;;;;;;;6.88;3.10;;;;;;;27.29;37.24;99285.75;5004204;28;20494;-95
2022/07/08 10:15:41;;;;;;;4.60;2.15;;;;;;;27.32;36.10;99298.81;5003945;28;20116;-93
2022/07/08 10:18:28;;;;;;;7.43;2.40;;;;;;;27.49;35.96;99304.84;5020470;28;20021;-93
2022/07/08 10:20:56;;;;;;;2.75;1.80;;;;;;;27.53;35.67;99306.44;5037732;28;20029;-92
2022/07/08 10:23:29;;;;;;;4.13;1.80;;;;;;;27.24;36.31;99286.09;5022381;28;20025;-95
2022/07/08 10:25:58;;;;;;;4.97;1.67;;;;;;;27.44;35.40;99294.94;5018853;28;20060;-94
2022/07/08 10:28:40;;;;;;;3.15;1.85;;;;;;;27.36;34.13;99296.84;5021006;28;20029;-92
2022/07/08 10:31:29;;;;;;;2.25;1.40;;;;;;;27.16;33.75;99299.03;5003917;28;20040;-95
2022/07/08 10:34:01;;;;;;;2.17;1.42;;;;;;;27.02;34.44;99312.75;5020401;28;20026;-92
2022/07/08 10:36:46;;;;;;;4.03;1.60;;;;;;;26.99;34.34;99299.69;5001656;28;20055;-93
2022/07/08 10:39:15;;;;;;;4.80;1.90;;;;;;;26.98;34.33;99298.91;4967085;28;20054;-95
2022/07/08 10:41:55;;;;;;;3.00;1.90;;;;;;;26.99;34.76;99280.34;4999245;28;20036;-94
2022/07/08 10:44:43;;;;;;;4.43;3.10;;;;;;;27.19;35.25;99290.00;5009212;28;20063;-94
2022/07/08 10:47:12;;;;;;;20.27;14.48;;;;;;;27.00;35.56;99273.66;5019170;28;20029;-93
2022/07/08 10:50:27;;;;;;;5.32;1.60;;;;;;;27.14;33.33;99259.13;5009789;28;20049;-96
2022/07/08 10:53:11;;;;;;;5.85;3.40;;;;;;;27.12;34.03;99256.78;5024715;28;20040;-95
2022/07/08 10:55:43;;;;;;;3.88;1.60;;;;;;;27.17;33.27;99259.16;5013691;28;20029;-96
2022/07/08 10:58:17;;;;;;;;;;;;;;;27.43;32.75;99274.00;5024752;28;20043;-91
2022/07/08 11:04:02;;;;;;;4.57;1.73;;;;;;;27.39;33.28;99276.75;5747509;22;20110;-92
2022/07/08 11:06:48;;;;;;;1.95;1.20;;;;;;;27.27;32.26;99245.81;5032516;28;20426;-93
2022/07/08 11:09:27;;;;;;;2.70;1.30;;;;;;;27.41;32.22;99245.91;4992668;28;20033;-92
2022/07/08 11:12:29;;;;;;;3.85;1.77;;;;;;;27.37;32.59;99250.63;5008466;28;20029;-92
2022/07/08 11:14:52;;;;;;;4.75;1.50;;;;;;;27.47;31.34;99268.50;5031286;28;20029;-92
2022/07/08 11:18:08;;;;;;;1.75;1.25;;;;;;;27.18;32.33;99237.84;5014414;28;20036;-93
2022/07/08 11:20:37;;;;;;;3.70;1.60;;;;;;;27.01;32.29;99217.19;4997191;28;20045;-92
2022/07/08 11:23:09;;;;;;;3.97;1.20;;;;;;;27.29;32.69;99222.16;5003906;28;20041;-94
2022/07/08 11:25:37;;;;;;;;;;;;;;;27.46;33.07;99231.75;5005008;28;20025;-94
2022/07/08 11:28:21;;;;;;;1.98;1.52;;;;;;;27.51;33.04;99212.00;5020447;28;19912;-95
2022/07/08 11:30:53;;;;;;;2.63;1.50;;;;;;;27.72;32.91;99225.16;5006169;28;20049;-93
2022/07/08 11:33:42;;;;;;;2.50;1.48;;;;;;;27.52;32.03;99213.59;5003110;28;20036;-94
2022/07/08 11:36:34;;;;;;;2.80;1.45;;;;;;;27.72;33.05;99221.59;5004472;28;20087;-92
2022/07/08 11:39:11;;;;;;;2.58;1.70;;;;;;;27.73;33.17;99214.91;5018554;28;20550;-94
2022/07/08 11:41:40;;;;;;;5.93;3.47;;;;;;;27.88;32.80;99211.03;5005332;28;20052;-93
2022/07/08 11:44:43;;;;;;;7.38;4.30;;;;;;;28.08;33.07;99221.75;5005859;28;20029;-94
2022/07/08 11:47:22;;;;;;;8.18;2.40;;;;;;;28.07;33.14;99185.00;5023962;28;20048;-94
2022/07/08 11:49:58;;;;;;;4.10;2.33;;;;;;;28.25;33.05;99198.09;5006030;28;20065;-95
2022/07/08 11:52:28;;;;;;;2.88;1.50;;;;;;;27.96;32.12;99193.28;5006258;28;20025;-93
2022/07/08 11:55:02;;;;;;;3.55;1.30;;;;;;;27.91;31.40;99203.91;5003614;28;20098;-93
2022/07/08 11:57:29;;;;;;;2.22;1.45;;;;;;;28.09;30.38;99204.00;4956848;28;20045;-92
2022/07/08 12:00:04;;;;;;;;;;;;;;;;;;;;;
2022/07/08 12:02:39;;;;;;;1.50;1.20;;;;;;;28.23;30.23;99190.19;4949386;28;20042;-96
2022/07/08 12:05:09;;;;;;;2.97;2.40;;;;;;;28.46;29.87;99205.66;4949830;28;20074;-94
2022/07/08 12:07:57;;;;;;;3.30;1.80;;;;;;;28.59;29.68;99195.81;4931776;28;20030;-94
2022/07/08 12:10:26;;;;;;;4.03;1.92;;;;;;;28.56;29.97;99194.63;4949592;28;20038;-93
2022/07/08 12:13:00;;;;;;;2.92;1.73;;;;;;;28.50;29.29;99184.31;4930903;28;20416;-93
2022/07/08 12:15:33;;;;;;;1.88;1.27;;;;;;;28.48;29.87;99172.81;4948734;28;20041;-95
2022/07/08 12:17:59;;;;;;;4.25;1.50;;;;;;;28.50;30.58;99162.16;4931128;28;20046;-93
2022/07/08 12:20:34;;;;;;;7.10;1.70;;;;;;;28.80;30.77;99172.84;4932461;28;20041;-93
2022/07/08 12:23:00;;;;;;;5.75;2.05;;;;;;;28.93;30.38;99176.00;4927364;29;20046;-93
2022/07/08 12:25:29;;;;;;;7.10;2.00;;;;;;;28.83;30.35;99146.34;4928707;29;20027;-94
2022/07/08 12:28:20;;;;;;;2.63;1.60;;;;;;;28.83;30.48;99155.44;4963492;28;20069;-92
2022/07/08 12:30:48;;;;;;;151.23;116.20;;;;;;;28.90;30.33;99154.63;5005917;28;20052;-92
2022/07/08 12:36:27;;;;;;;5.63;1.92;;;;;;;29.30;30.33;99166.47;5010487;28;20025;-95
2022/07/08 12:39:01;;;;;;;10.90;2.60;;;;;;;29.29;30.79;99149.03;4993775;28;20112;-94
2022/07/08 12:41:27;;;;;;;4.53;2.17;;;;;;;29.38;30.27;99154.16;5007891;28;20060;-94
2022/07/08 12:43:58;;;;;;;3.63;1.77;;;;;;;29.44;29.67;99141.44;4988625;28;20025;-93
2022/07/08 12:46:47;;;;;;;6.43;1.80;;;;;;;29.47;29.60;99131.53;4990921;28;20033;-95
2022/07/08 12:49:23;;;;;;;2.65;1.52;;;;;;;29.73;29.46;99142.16;5027301;28;20030;-94
2022/07/08 12:51:49;;;;;;;11.15;1.80;;;;;;;29.57;30.04;99127.91;4990627;28;20032;-93